Eastover, South Carolina
Current Conditions -  °F | °C
As of 2:18 AM on Saturday 25 Oct 2014 (Local Time) from KMMT Reporting Station
Haze Haze  
Wind Chill: 43°   Ceiling: Unl
Heat Index: 43°   Visibility: 1.7mi
Dew Point: 43°   Wind: 0mph
Humidity: 100%   Direction: NA
Pressure: 30"   Gusts: NA
Location:  33.88°N, 80.69°W
Report Text: KMMT 250618Z AUTO 00000KT 1 3/4SM R32/5000FT BR CLR 06/06 A3000 RMK AO2 VIS 3/4V1 3/4
Loading
Personal Weather Stations






























Interactive Weather Map
Tropical Storm Tracking
New forecast layout! Learn more

10-Day Weather Forecast

Advertisements
Track Severe Weather on mobile